الصفحة الرئيسية
METAR-TAF:

METAR-TAF

مطار :

سكاكا, السعودية

مطار الجوف المحلي

دائرة عرض: 29-47N, خط طول: 040-06E, ارتفاع: 689 متر

مراقبة الطقس الحالي

تاريخ ووقت الإصدار 52 دقيقة قبل الساعة 18:00UTC
ريح 5 عقدة من الشمال الشرقي
درجة الحرارة 19°درجة مئوية
الرطوبة 28%
ضغط 1013 hPa
الرؤية 10 كم أو أكثر
غيوم قليلة على ارتفاع 4000 قدم

METAR: OESK 221800Z 05005KT 9999 FEW040 19/00 Q1013

زمن: 21:52 (18:52 UTC)

توقعات

تاريخ ووقت الإصدار 6ساعات و 52 دقيقة قبل الساعة 12:00UTC
التوقعات صالحة من22 الساعة 12 UTC إلى 23 الساعة 18 UTC
ريح 5 عقدة من الغرب تتزايد حتى 15 عقدة
الرؤية: 7000 متر
غيوم قليلة على ارتفاع 4000 قدم
غيوم متفرقة على ارتفاع 10000 قدم
أصبح
من 22 الساعة 18 UTC إلى 22 الساعة 20 UTC
ريح 3 عقدةمن اتجاهات متغيرة

TAF: OESK 221200Z 2212/2318 28005G15KT 7000 FEW040 SCT100 BECMG 2218/2220 VRB03KT

أرصاد الطقس والتوقعات من أكثر من 4000 مطار (تقارير الطقس للمطار METAR والتنبؤ بالطقس بالمطارTAF).

المحطات المتاحة هي النقط الصفراء والحمراء على الخريطة.

حرك المؤشر فوق النقطة لمعرفة اسم المحطة.

ثم انقر لمعرفة أرصاد وتوقعات الطقس.

لتغيير الخارطة: اضغط على الأزرار الخضراء مع رمز الصليب الأسود للتكبير. على الزر الأخضر مع شرطة للتصغير، أو على الأسهم الخضراء للخرائط المجاورة.


METAR-TAF: